Terminal Aerodrome Forecast
Issued by NWS Chicago, IL

Home | Current Version | Previous Version | Text Only | Print | Product List | Glossary Off
Versions: 1 2 3 4 5 6 7 8 9 10 11 12 13 14 15 16 17 18 19 20 21 22 23 24 25 26 27 28 29

211
FTUS43 KLOT 171742
TAFRFD
TAF
KRFD 171742Z 1718/1818 20011KT P6SM OVC080
     FM171930 23012KT 1 1/2SM -SHSN SCT010 OVC020
      TEMPO 1720/1722 3/4SM -SHSN OVC008
     FM172300 26011KT P6SM SCT025
     FM181000 17006KT P6SM SCT250=

USA.gov is the U.S. government's official web portal to all federal, state and local government web resources and services.